Derby Field
KLOL : rendu visible

Aérodrome :











RETROUVEZ-NOUS SUR...

 
LOGIN :

S'inscrire | Disclaimer

   EN    FR    IT 

 









Légende :    VFR   VFR Marginal   IFR   IFR Intensif   IFR Très Intensif
Visi : 
Plafond : 
>= 8 km
>= 3000ft
5 à 8 km
1000 à 3000 ft
1500m à 5 km
500 à 1000 ft
800 à 1500m
200 à 500 ft
< 800m
< 200 ft
Symboles :   Orages  Brouillard  Fortes neiges  Fortes précipitations  Vent > 20 kt






- Altitude de l'aérodrome : 3904 ft


KLOL - Derby Field

DERNIER METAR :
  • 201353Z AUTO 00000KT 6SM HZ CLR 03/00 A3010 RMK AO2 SLP183 T00330000

METARs EXPIRÉS :
  • 201253Z AUTO 00000KT 8SM CLR 03/M01 A3010 RMK AO2 SLP176 T00281006
  • 201153Z AUTO 00000KT 8SM CLR 05/01 A3010 RMK AO2 SLP173 T00500006 10106 20033 53002

TAF N/A
FIR KZOA / Amérique du Nord



MET'MAP, la Météo Aéronautique d'un coup d'oeil ! - Copyright ORBIFLY Décembre 2007 - Disclaimer

ORBIFLY MET'MAP TEAM :

Programmation & Développement : Alexandra Zaïnal
Sur une idée originale de : Baudouin d'Aumeries
Assistance à la programmation : Marc-Olivier Méhu
Soutien technique & logistique : Manuel Goepfert

Contact : metmap@orbifly.com




SOURCES & CREDITS :

   NOAA       Earth
Advisory